sensor_id;sensor_type;location;lat;lon;timestamp;pressure;altitude;pressure_sealevel;temperature;humidity
70323;BME280;57735;56.264;43.898;2023-02-16T00:02:04;101413.75;;;-6.02;68.00
70323;BME280;57735;56.264;43.898;2023-02-16T00:04:35;101412.03;;;-6.03;68.42
70323;BME280;57735;56.264;43.898;2023-02-16T00:07:06;101406.06;;;-6.06;68.27
70323;BME280;57735;56.264;43.898;2023-02-16T00:09:37;101418.16;;;-6.04;67.94
70323;BME280;57735;56.264;43.898;2023-02-16T00:12:15;101418.16;;;-6.05;68.31
70323;BME280;57735;56.264;43.898;2023-02-16T00:15:18;101419.88;;;-6.04;68.36
70323;BME280;57735;56.264;43.898;2023-02-16T00:17:49;101417.25;;;-6.03;68.39
70323;BME280;57735;56.264;43.898;2023-02-16T00:20:21;101413.75;;;-6.02;68.01
70323;BME280;57735;56.264;43.898;2023-02-16T00:22:52;101413.72;;;-5.99;68.45
70323;BME280;57735;56.264;43.898;2023-02-16T00:25:23;101418.00;;;-5.94;68.07
70323;BME280;57735;56.264;43.898;2023-02-16T00:27:54;101417.97;;;-5.93;67.97
70323;BME280;57735;56.264;43.898;2023-02-16T00:30:25;101411.88;;;-5.90;67.94
70323;BME280;57735;56.264;43.898;2023-02-16T00:32:56;101408.41;;;-5.89;68.10
70323;BME280;57735;56.264;43.898;2023-02-16T00:35:26;101409.25;;;-5.89;67.59
70323;BME280;57735;56.264;43.898;2023-02-16T00:37:57;101402.34;;;-5.90;67.74
70323;BME280;57735;56.264;43.898;2023-02-16T00:40:28;101403.09;;;-5.86;67.91
70323;BME280;57735;56.264;43.898;2023-02-16T00:43:01;101403.09;;;-5.86;67.56
70323;BME280;57735;56.264;43.898;2023-02-16T00:45:35;101410.88;;;-5.85;68.06
70323;BME280;57735;56.264;43.898;2023-02-16T00:48:07;101417.78;;;-5.84;67.78
70323;BME280;57735;56.264;43.898;2023-02-16T00:50:38;101415.19;;;-5.84;67.63
70323;BME280;57735;56.264;43.898;2023-02-16T00:53:09;101414.22;;;-5.77;68.16
70323;BME280;57735;56.264;43.898;2023-02-16T00:55:42;101418.44;;;-5.71;67.71
70323;BME280;57735;56.264;43.898;2023-02-16T00:58:26;101413.19;;;-5.68;67.67
70323;BME280;57735;56.264;43.898;2023-02-16T01:01:10;101416.63;;;-5.66;67.35
70323;BME280;57735;56.264;43.898;2023-02-16T01:03:42;101414.03;;;-5.68;67.37
70323;BME280;57735;56.264;43.898;2023-02-16T01:06:13;101416.81;;;-5.78;67.31
70323;BME280;57735;56.264;43.898;2023-02-16T01:09:14;101417.78;;;-5.85;67.75
70323;BME280;57735;56.264;43.898;2023-02-16T01:12:12;101421.38;;;-5.89;67.99
70323;BME280;57735;56.264;43.898;2023-02-16T01:14:48;101420.53;;;-5.91;68.09
70323;BME280;57735;56.264;43.898;2023-02-16T01:17:23;101426.69;;;-5.97;67.91
70323;BME280;57735;56.264;43.898;2023-02-16T01:19:57;101428.47;;;-6.02;68.04
70323;BME280;57735;56.264;43.898;2023-02-16T01:22:28;101426.94;;;-6.14;68.29
70323;BME280;57735;56.264;43.898;2023-02-16T01:25:02;101424.50;;;-6.23;68.39
70323;BME280;57735;56.264;43.898;2023-02-16T01:27:36;101429.78;;;-6.30;68.66
70323;BME280;57735;56.264;43.898;2023-02-16T01:30:13;101430.69;;;-6.35;68.78
70323;BME280;57735;56.264;43.898;2023-02-16T01:32:44;101422.13;;;-6.40;68.74
70323;BME280;57735;56.264;43.898;2023-02-16T01:35:29;101442.09;;;-6.46;69.04
70323;BME280;57735;56.264;43.898;2023-02-16T01:38:01;101437.81;;;-6.50;69.23
70323;BME280;57735;56.264;43.898;2023-02-16T01:43:25;101435.38;;;-6.59;69.51
70323;BME280;57735;56.264;43.898;2023-02-16T01:46:09;101442.38;;;-6.69;69.52
70323;BME280;57735;56.264;43.898;2023-02-16T01:48:41;101452.84;;;-6.75;69.69
70323;BME280;57735;56.264;43.898;2023-02-16T01:51:32;101432.19;;;-6.83;69.78
70323;BME280;57735;56.264;43.898;2023-02-16T01:54:41;101441.78;;;-6.89;69.85
70323;BME280;57735;56.264;43.898;2023-02-16T01:57:36;101447.88;;;-6.95;69.99
70323;BME280;57735;56.264;43.898;2023-02-16T02:00:11;101445.34;;;-7.01;70.31
70323;BME280;57735;56.264;43.898;2023-02-16T02:02:49;101454.06;;;-7.07;70.61
70323;BME280;57735;56.264;43.898;2023-02-16T02:05:26;101455.84;;;-7.12;70.64
70323;BME280;57735;56.264;43.898;2023-02-16T02:16:27;101464.50;;;-7.14;71.09
70323;BME280;57735;56.264;43.898;2023-02-16T02:18:58;101463.59;;;-7.10;71.05
70323;BME280;57735;56.264;43.898;2023-02-16T02:21:48;101466.19;;;-7.10;70.96
70323;BME280;57735;56.264;43.898;2023-02-16T02:27:44;101465.38;;;-7.14;70.73
70323;BME280;57735;56.264;43.898;2023-02-16T02:41:18;101477.63;;;-7.29;71.27
70323;BME280;57735;56.264;43.898;2023-02-16T02:44:14;101486.25;;;-7.30;71.29
70323;BME280;57735;56.264;43.898;2023-02-16T02:46:51;101483.78;;;-7.43;71.56
70323;BME280;57735;56.264;43.898;2023-02-16T02:49:24;101488.13;;;-7.45;71.61
70323;BME280;57735;56.264;43.898;2023-02-16T02:51:57;101483.81;;;-7.49;71.79
70323;BME280;57735;56.264;43.898;2023-02-16T02:54:32;101497.66;;;-7.53;71.89
70323;BME280;57735;56.264;43.898;2023-02-16T02:57:31;101495.13;;;-7.56;72.01
70323;BME280;57735;56.264;43.898;2023-02-16T03:00:34;101490.75;;;-7.54;72.03
70323;BME280;57735;56.264;43.898;2023-02-16T03:06:15;101501.16;;;-7.55;72.02
70323;BME280;57735;56.264;43.898;2023-02-16T03:09:01;101504.59;;;-7.55;71.81
70323;BME280;57735;56.264;43.898;2023-02-16T03:11:36;101495.13;;;-7.56;71.60
70323;BME280;57735;56.264;43.898;2023-02-16T03:14:40;101497.72;;;-7.56;71.97
70323;BME280;57735;56.264;43.898;2023-02-16T03:17:16;101503.75;;;-7.55;71.83
70323;BME280;57735;56.264;43.898;2023-02-16T03:20:07;101499.38;;;-7.53;71.97
70323;BME280;57735;56.264;43.898;2023-02-16T03:23:00;101507.16;;;-7.52;72.47
70323;BME280;57735;56.264;43.898;2023-02-16T03:25:51;101496.84;;;-7.55;72.30
70323;BME280;57735;56.264;43.898;2023-02-16T03:28:42;101499.38;;;-7.50;72.21
70323;BME280;57735;56.264;43.898;2023-02-16T03:31:38;101499.38;;;-7.52;72.32
70323;BME280;57735;56.264;43.898;2023-02-16T03:34:10;101502.78;;;-7.47;72.48
70323;BME280;57735;56.264;43.898;2023-02-16T03:36:44;101506.22;;;-7.42;72.49
70323;BME280;57735;56.264;43.898;2023-02-16T03:39:17;101503.56;;;-7.37;72.25
70323;BME280;57735;56.264;43.898;2023-02-16T03:41:49;101505.28;;;-7.34;72.07
70323;BME280;57735;56.264;43.898;2023-02-16T03:44:21;101504.41;;;-7.35;72.17
70323;BME280;57735;56.264;43.898;2023-02-16T03:46:52;101502.72;;;-7.37;72.15
70323;BME280;57735;56.264;43.898;2023-02-16T03:49:22;101500.97;;;-7.37;72.36
70323;BME280;57735;56.264;43.898;2023-02-16T03:51:53;101505.31;;;-7.37;72.16
70323;BME280;57735;56.264;43.898;2023-02-16T03:54:24;101495.84;;;-7.40;72.46
70323;BME280;57735;56.264;43.898;2023-02-16T03:56:55;101507.97;;;-7.44;72.58
70323;BME280;57735;56.264;43.898;2023-02-16T03:59:27;101507.09;;;-7.43;72.76
70323;BME280;57735;56.264;43.898;2023-02-16T04:01:59;101496.72;;;-7.43;72.44
70323;BME280;57735;56.264;43.898;2023-02-16T04:04:29;101505.38;;;-7.47;72.36
70323;BME280;57735;56.264;43.898;2023-02-16T04:07:00;101503.69;;;-7.51;72.48
70323;BME280;57735;56.264;43.898;2023-02-16T04:09:31;101502.03;;;-7.55;72.63
70323;BME280;57735;56.264;43.898;2023-02-16T04:12:02;101504.63;;;-7.58;72.62
70323;BME280;57735;56.264;43.898;2023-02-16T04:14:51;101508.06;;;-7.57;72.93
70323;BME280;57735;56.264;43.898;2023-02-16T04:17:22;101516.72;;;-7.58;73.07
70323;BME280;57735;56.264;43.898;2023-02-16T04:19:52;101514.97;;;-7.58;73.02
70323;BME280;57735;56.264;43.898;2023-02-16T04:22:23;101510.66;;;-7.56;72.89
70323;BME280;57735;56.264;43.898;2023-02-16T04:24:56;101507.16;;;-7.53;73.24
70323;BME280;57735;56.264;43.898;2023-02-16T04:27:27;101498.53;;;-7.54;72.75
70323;BME280;57735;56.264;43.898;2023-02-16T04:29:58;101505.47;;;-7.56;72.96
70323;BME280;57735;56.264;43.898;2023-02-16T04:32:29;101504.56;;;-7.53;72.90
70323;BME280;57735;56.264;43.898;2023-02-16T04:35:00;101513.16;;;-7.48;72.95
70323;BME280;57735;56.264;43.898;2023-02-16T04:37:30;101517.50;;;-7.50;72.75
70323;BME280;57735;56.264;43.898;2023-02-16T04:40:02;101504.56;;;-7.52;72.88
70323;BME280;57735;56.264;43.898;2023-02-16T04:42:34;101510.59;;;-7.50;73.02
70323;BME280;57735;56.264;43.898;2023-02-16T04:45:05;101510.59;;;-7.50;72.70
70323;BME280;57735;56.264;43.898;2023-02-16T04:47:36;101508.81;;;-7.45;72.88
70323;BME280;57735;56.264;43.898;2023-02-16T04:50:07;101503.56;;;-7.37;72.93
70323;BME280;57735;56.264;43.898;2023-02-16T04:52:38;101500.09;;;-7.34;72.55
70323;BME280;57735;56.264;43.898;2023-02-16T04:55:10;101497.56;;;-7.37;72.53
70323;BME280;57735;56.264;43.898;2023-02-16T04:57:43;101502.78;;;-7.45;72.61
70323;BME280;57735;56.264;43.898;2023-02-16T05:00:17;101508.81;;;-7.45;72.65
70323;BME280;57735;56.264;43.898;2023-02-16T05:02:48;101511.38;;;-7.40;72.73
70323;BME280;57735;56.264;43.898;2023-02-16T05:05:21;101518.22;;;-7.33;72.78
70323;BME280;57735;56.264;43.898;2023-02-16T05:07:52;101513.84;;;-7.26;72.73
70323;BME280;57735;56.264;43.898;2023-02-16T05:10:27;101513.75;;;-7.19;72.48
70323;BME280;57735;56.264;43.898;2023-02-16T05:12:59;101515.41;;;-7.10;72.51
70323;BME280;57735;56.264;43.898;2023-02-16T05:15:49;101518.00;;;-7.07;71.70
70323;BME280;57735;56.264;43.898;2023-02-16T05:18:20;101522.31;;;-7.09;72.03
70323;BME280;57735;56.264;43.898;2023-02-16T05:20:53;101524.03;;;-7.08;72.14
70323;BME280;57735;56.264;43.898;2023-02-16T05:23:48;101529.16;;;-7.02;72.00
70323;BME280;57735;56.264;43.898;2023-02-16T05:26:19;101536.00;;;-6.95;71.34
70323;BME280;57735;56.264;43.898;2023-02-16T05:28:49;101528.19;;;-6.92;71.36
70323;BME280;57735;56.264;43.898;2023-02-16T05:31:21;101531.69;;;-6.94;71.05
70323;BME280;57735;56.264;43.898;2023-02-16T05:33:54;101532.53;;;-6.95;71.35
70323;BME280;57735;56.264;43.898;2023-02-16T05:36:25;101529.06;;;-6.93;71.18
70323;BME280;57735;56.264;43.898;2023-02-16T05:38:57;101520.31;;;-6.83;71.45
70323;BME280;57735;56.264;43.898;2023-02-16T05:41:28;101524.59;;;-6.79;70.83
70323;BME280;57735;56.264;43.898;2023-02-16T05:44:01;101525.34;;;-6.69;70.76
70323;BME280;57735;56.264;43.898;2023-02-16T05:46:34;101520.97;;;-6.62;70.64
70323;BME280;57735;56.264;43.898;2023-02-16T05:49:08;101516.66;;;-6.63;70.12
70323;BME280;57735;56.264;43.898;2023-02-16T05:51:39;101527.84;;;-6.58;70.15
70323;BME280;57735;56.264;43.898;2023-02-16T05:54:13;101520.97;;;-6.64;70.21
70323;BME280;57735;56.264;43.898;2023-02-16T05:56:49;101525.34;;;-6.69;70.27
70323;BME280;57735;56.264;43.898;2023-02-16T05:59:22;101522.84;;;-6.77;70.01
70323;BME280;57735;56.264;43.898;2023-02-16T06:01:53;101522.88;;;-6.80;70.14
70323;BME280;57735;56.264;43.898;2023-02-16T06:04:27;101527.16;;;-6.74;70.33
70323;BME280;57735;56.264;43.898;2023-02-16T06:06:58;101524.44;;;-6.66;70.30
70323;BME280;57735;56.264;43.898;2023-02-16T06:09:29;101534.75;;;-6.60;70.09
70323;BME280;57735;56.264;43.898;2023-02-16T06:12:00;101522.66;;;-6.60;69.47
70323;BME280;57735;56.264;43.898;2023-02-16T06:14:34;101532.03;;;-6.48;69.47
70323;BME280;57735;56.264;43.898;2023-02-16T06:17:08;101530.28;;;-6.46;69.32
70323;BME280;57735;56.264;43.898;2023-02-16T06:19:39;101524.06;;;-6.35;68.98
70323;BME280;57735;56.264;43.898;2023-02-16T06:22:12;101518.75;;;-6.22;68.67
70323;BME280;57735;56.264;43.898;2023-02-16T06:24:43;101520.50;;;-6.24;68.52
70323;BME280;57735;56.264;43.898;2023-02-16T06:27:14;101522.19;;;-6.22;68.59
70323;BME280;57735;56.264;43.898;2023-02-16T06:29:45;101519.59;;;-6.22;68.41
70323;BME280;57735;56.264;43.898;2023-02-16T06:32:15;101531.53;;;-6.09;68.24
70323;BME280;57735;56.264;43.898;2023-02-16T06:34:47;101535.75;;;-6.02;68.21
70323;BME280;57735;56.264;43.898;2023-02-16T06:37:18;101539.19;;;-6.01;67.95
70323;BME280;57735;56.264;43.898;2023-02-16T06:39:49;101545.25;;;-6.01;67.76
70323;BME280;57735;56.264;43.898;2023-02-16T06:42:20;101541.88;;;-6.06;67.29
70323;BME280;57735;56.264;43.898;2023-02-16T06:44:54;101536.59;;;-6.01;67.68
70323;BME280;57735;56.264;43.898;2023-02-16T06:47:25;101539.94;;;-5.91;67.62
70323;BME280;57735;56.264;43.898;2023-02-16T06:49:56;101532.88;;;-5.85;66.98
70323;BME280;57735;56.264;43.898;2023-02-16T06:52:29;101530.25;;;-5.82;67.50
70323;BME280;57735;56.264;43.898;2023-02-16T06:54:59;101536.19;;;-5.74;66.91
70323;BME280;57735;56.264;43.898;2023-02-16T06:57:31;101531.00;;;-5.72;66.65
70323;BME280;57735;56.264;43.898;2023-02-16T07:00:04;101538.78;;;-5.74;66.78
70323;BME280;57735;56.264;43.898;2023-02-16T07:02:37;101544.69;;;-5.63;66.45
70323;BME280;57735;56.264;43.898;2023-02-16T07:05:08;101540.28;;;-5.57;66.53
70323;BME280;57735;56.264;43.898;2023-02-16T07:07:38;101528.03;;;-5.51;65.75
70323;BME280;57735;56.264;43.898;2023-02-16T07:10:20;101530.56;;;-5.45;65.39
70323;BME280;57735;56.264;43.898;2023-02-16T07:13:01;101532.09;;;-5.35;66.02
70323;BME280;57735;56.264;43.898;2023-02-16T07:15:42;101538.03;;;-5.27;65.64
70323;BME280;57735;56.264;43.898;2023-02-16T07:18:13;101536.13;;;-5.15;64.61
70323;BME280;57735;56.264;43.898;2023-02-16T07:20:44;101532.59;;;-5.13;64.88
70323;BME280;57735;56.264;43.898;2023-02-16T07:23:15;101536.09;;;-5.14;64.26
70323;BME280;57735;56.264;43.898;2023-02-16T07:25:46;101537.84;;;-5.14;64.54
70323;BME280;57735;56.264;43.898;2023-02-16T07:28:18;101527.22;;;-5.02;64.33
70323;BME280;57735;56.264;43.898;2023-02-16T07:30:49;101535.94;;;-5.05;63.94
70323;BME280;57735;56.264;43.898;2023-02-16T07:33:20;101533.41;;;-5.08;64.11
70323;BME280;57735;56.264;43.898;2023-02-16T07:35:51;101534.19;;;-5.03;63.96
70323;BME280;57735;56.264;43.898;2023-02-16T07:38:22;101527.94;;;-4.93;63.66
70323;BME280;57735;56.264;43.898;2023-02-16T07:40:56;101535.56;;;-4.85;63.82
70323;BME280;57735;56.264;43.898;2023-02-16T07:43:28;101526.84;;;-4.82;63.13
70323;BME280;57735;56.264;43.898;2023-02-16T07:46:00;101531.28;;;-4.86;63.40
70323;BME280;57735;56.264;43.898;2023-02-16T07:48:31;101531.28;;;-4.86;63.40
70323;BME280;57735;56.264;43.898;2023-02-16T07:51:02;101539.97;;;-4.87;63.54
70323;BME280;57735;56.264;43.898;2023-02-16T07:53:33;101537.06;;;-4.70;63.86
70323;BME280;57735;56.264;43.898;2023-02-16T07:56:05;101538.44;;;-4.52;63.20
70323;BME280;57735;56.264;43.898;2023-02-16T07:58:36;101542.03;;;-4.60;62.69
70323;BME280;57735;56.264;43.898;2023-02-16T08:01:09;101531.59;;;-4.57;63.27
70323;BME280;57735;56.264;43.898;2023-02-16T08:03:42;101531.59;;;-4.57;62.73
70323;BME280;57735;56.264;43.898;2023-02-16T08:06:23;101534.16;;;-4.55;62.35
70323;BME280;57735;56.264;43.898;2023-02-16T08:08:55;101541.09;;;-4.55;62.99
70323;BME280;57735;56.264;43.898;2023-02-16T08:11:31;101539.25;;;-4.50;62.89
70323;BME280;57735;56.264;43.898;2023-02-16T08:14:11;101539.06;;;-4.40;62.38
70323;BME280;57735;56.264;43.898;2023-02-16T08:16:43;101556.22;;;-4.31;62.21
70323;BME280;57735;56.264;43.898;2023-02-16T08:19:19;101543.53;;;-4.48;62.32
70323;BME280;57735;56.264;43.898;2023-02-16T08:21:52;101546.91;;;-4.43;62.90
70323;BME280;57735;56.264;43.898;2023-02-16T08:24:23;101549.34;;;-4.35;62.94
70323;BME280;57735;56.264;43.898;2023-02-16T08:26:54;101549.06;;;-4.20;63.08
70323;BME280;57735;56.264;43.898;2023-02-16T08:29:25;101549.84;;;-4.18;62.31
70323;BME280;57735;56.264;43.898;2023-02-16T08:31:57;101550.69;;;-4.16;62.00
70323;BME280;57735;56.264;43.898;2023-02-16T08:34:29;101544.66;;;-4.18;61.62
70323;BME280;57735;56.264;43.898;2023-02-16T08:37:12;101552.66;;;-4.27;62.03
70323;BME280;57735;56.264;43.898;2023-02-16T08:39:53;101547.66;;;-4.36;62.13
70323;BME280;57735;56.264;43.898;2023-02-16T08:42:25;101544.19;;;-4.37;62.72
70323;BME280;57735;56.264;43.898;2023-02-16T08:45:06;101554.31;;;-4.23;62.49
70323;BME280;57735;56.264;43.898;2023-02-16T08:47:57;101560.53;;;-4.30;62.17
70323;BME280;57735;56.264;43.898;2023-02-16T08:50:30;101553.59;;;-4.30;62.49
70323;BME280;57735;56.264;43.898;2023-02-16T08:53:03;101555.31;;;-4.30;62.58
70323;BME280;57735;56.264;43.898;2023-02-16T08:55:34;101558.84;;;-4.33;62.29
70323;BME280;57735;56.264;43.898;2023-02-16T08:58:05;101556.03;;;-4.22;62.26
70323;BME280;57735;56.264;43.898;2023-02-16T09:00:36;101565.38;;;-4.12;61.98
70323;BME280;57735;56.264;43.898;2023-02-16T09:03:08;101561.00;;;-4.10;61.43
70323;BME280;57735;56.264;43.898;2023-02-16T09:05:43;101560.88;;;-4.04;61.44
70323;BME280;57735;56.264;43.898;2023-02-16T09:08:15;101568.56;;;-3.99;61.19
70323;BME280;57735;56.264;43.898;2023-02-16T09:10:46;101557.22;;;-3.97;61.60
70323;BME280;57735;56.264;43.898;2023-02-16T09:13:17;101557.94;;;-3.89;61.15
70323;BME280;57735;56.264;43.898;2023-02-16T09:15:50;101561.06;;;-3.73;60.98
70323;BME280;57735;56.264;43.898;2023-02-16T09:18:22;101562.31;;;-3.52;60.05
70323;BME280;57735;56.264;43.898;2023-02-16T09:20:53;101553.97;;;-3.31;59.59
70323;BME280;57735;56.264;43.898;2023-02-16T09:23:24;101558.81;;;-3.16;58.80
70323;BME280;57735;56.264;43.898;2023-02-16T09:25:55;101559.88;;;-3.23;58.61
70323;BME280;57735;56.264;43.898;2023-02-16T09:28:29;101559.31;;;-3.35;57.62
70323;BME280;57735;56.264;43.898;2023-02-16T09:33:42;101561.63;;;-3.23;57.56
70323;BME280;57735;56.264;43.898;2023-02-16T09:36:15;101565.34;;;-3.35;58.17
70323;BME280;57735;56.264;43.898;2023-02-16T09:38:46;101559.53;;;-3.44;58.67
70323;BME280;57735;56.264;43.898;2023-02-16T09:46:45;101557.75;;;-3.42;57.62
70323;BME280;57735;56.264;43.898;2023-02-16T09:49:25;101567.25;;;-3.40;57.25
70323;BME280;57735;56.264;43.898;2023-02-16T09:52:08;101566.34;;;-3.39;56.44
70323;BME280;57735;56.264;43.898;2023-02-16T10:00:21;101573.19;;;-3.35;57.12
70323;BME280;57735;56.264;43.898;2023-02-16T10:06:18;101556.69;;;-3.72;57.73
70323;BME280;57735;56.264;43.898;2023-02-16T10:09:02;101561.25;;;-3.82;57.22
70323;BME280;57735;56.264;43.898;2023-02-16T10:11:41;101572.47;;;-3.78;57.35
70323;BME280;57735;56.264;43.898;2023-02-16T10:20:18;101571.78;;;-3.87;57.16
70323;BME280;57735;56.264;43.898;2023-02-16T10:23:00;101565.06;;;-3.98;57.57
70323;BME280;57735;56.264;43.898;2023-02-16T10:25:47;101581.88;;;-4.13;58.29
70323;BME280;57735;56.264;43.898;2023-02-16T10:28:41;101564.78;;;-4.26;58.35
70323;BME280;57735;56.264;43.898;2023-02-16T10:31:35;101565.69;;;-4.27;58.78
70323;BME280;57735;56.264;43.898;2023-02-16T10:45:53;101564.97;;;-4.35;59.20
70323;BME280;57735;56.264;43.898;2023-02-16T10:48:24;101568.53;;;-4.39;58.42
70323;BME280;57735;56.264;43.898;2023-02-16T10:51:08;101564.00;;;-4.30;58.92
70323;BME280;57735;56.264;43.898;2023-02-16T10:53:46;101569.81;;;-4.17;58.90
70323;BME280;57735;56.264;43.898;2023-02-16T10:59:22;101582.34;;;-4.36;58.83
70323;BME280;57735;56.264;43.898;2023-02-16T11:01:56;101572.75;;;-4.35;58.86
70323;BME280;57735;56.264;43.898;2023-02-16T11:04:40;101561.88;;;-4.52;58.82
70323;BME280;57735;56.264;43.898;2023-02-16T11:07:15;101565.38;;;-4.55;59.47
70323;BME280;57735;56.264;43.898;2023-02-16T11:09:51;101570.47;;;-4.50;59.60
70323;BME280;57735;56.264;43.898;2023-02-16T11:12:31;101574.78;;;-4.49;59.33
70323;BME280;57735;56.264;43.898;2023-02-16T11:18:21;101579.03;;;-4.44;59.70
70323;BME280;57735;56.264;43.898;2023-02-16T11:20:54;101575.00;;;-4.17;59.68
70323;BME280;57735;56.264;43.898;2023-02-16T11:23:38;101568.03;;;-4.15;58.59
70323;BME280;57735;56.264;43.898;2023-02-16T11:28:48;101568.88;;;-4.14;58.74
70323;BME280;57735;56.264;43.898;2023-02-16T11:33:59;101566.13;;;-4.07;58.69
70323;BME280;57735;56.264;43.898;2023-02-16T11:36:34;101568.59;;;-4.01;59.37
70323;BME280;57735;56.264;43.898;2023-02-16T11:39:24;101571.03;;;-3.93;58.56
70323;BME280;57735;56.264;43.898;2023-02-16T11:42:05;101572.06;;;-4.00;59.03
70323;BME280;57735;56.264;43.898;2023-02-16T11:44:50;101571.47;;;-4.13;58.90
70323;BME280;57735;56.264;43.898;2023-02-16T11:50:16;101575.34;;;-4.34;59.28
70323;BME280;57735;56.264;43.898;2023-02-16T11:52:53;101577.22;;;-4.40;59.46
70323;BME280;57735;56.264;43.898;2023-02-16T11:55:28;101574.63;;;-4.40;60.00
70323;BME280;57735;56.264;43.898;2023-02-16T11:58:14;101564.19;;;-4.39;60.08
70323;BME280;57735;56.264;43.898;2023-02-16T12:07:13;101562.44;;;-4.38;59.93
70323;BME280;57735;56.264;43.898;2023-02-16T12:16:00;101573.94;;;-4.51;61.10
70323;BME280;57735;56.264;43.898;2023-02-16T12:21:41;101580.00;;;-4.51;60.80
70323;BME280;57735;56.264;43.898;2023-02-16T12:27:29;101585.31;;;-4.54;61.02
70323;BME280;57735;56.264;43.898;2023-02-16T12:30:25;101588.81;;;-4.57;60.96
70323;BME280;57735;56.264;43.898;2023-02-16T12:34:06;101587.09;;;-4.58;60.78
70323;BME280;57735;56.264;43.898;2023-02-16T12:36:31;101584.50;;;-4.58;60.87
70323;BME280;57735;56.264;43.898;2023-02-16T12:40:02;101596.59;;;-4.55;61.37
70323;BME280;57735;56.264;43.898;2023-02-16T12:45:31;101584.47;;;-4.56;61.72
70323;BME280;57735;56.264;43.898;2023-02-16T12:50:56;101583.47;;;-4.50;61.84
70323;BME280;57735;56.264;43.898;2023-02-16T12:56:51;101581.44;;;-4.35;61.39
70323;BME280;57735;56.264;43.898;2023-02-16T12:59:53;101585.03;;;-4.40;60.95
70323;BME280;57735;56.264;43.898;2023-02-16T13:02:31;101586.16;;;-4.53;60.78
70323;BME280;57735;56.264;43.898;2023-02-16T13:05:34;101587.16;;;-4.61;61.27
70323;BME280;57735;56.264;43.898;2023-02-16T13:08:19;101597.69;;;-4.68;61.72
70323;BME280;57735;56.264;43.898;2023-02-16T13:13:45;101591.88;;;-4.82;62.97
70323;BME280;57735;56.264;43.898;2023-02-16T13:16:30;101598.75;;;-4.78;63.12
70323;BME280;57735;56.264;43.898;2023-02-16T13:19:12;101601.19;;;-4.69;62.97
70323;BME280;57735;56.264;43.898;2023-02-16T13:33:05;101587.16;;;-4.62;62.22
70323;BME280;57735;56.264;43.898;2023-02-16T13:35:52;101578.50;;;-4.63;62.50
70323;BME280;57735;56.264;43.898;2023-02-16T13:41:32;101581.28;;;-4.72;63.20
70323;BME280;57735;56.264;43.898;2023-02-16T13:44:22;101580.41;;;-4.71;63.48
70323;BME280;57735;56.264;43.898;2023-02-16T13:46:56;101582.81;;;-4.62;63.14
70323;BME280;57735;56.264;43.898;2023-02-16T13:52:09;101581.91;;;-4.59;63.81
70323;BME280;57735;56.264;43.898;2023-02-16T13:54:47;101575.88;;;-4.61;63.12
70323;BME280;57735;56.264;43.898;2023-02-16T14:00:41;101577.53;;;-4.55;63.72
70323;BME280;57735;56.264;43.898;2023-02-16T14:05:53;101585.06;;;-4.42;63.64
70323;BME280;57735;56.264;43.898;2023-02-16T14:08:26;101584.28;;;-4.47;63.41
70323;BME280;57735;56.264;43.898;2023-02-16T14:11:02;101593.09;;;-4.52;63.73
70323;BME280;57735;56.264;43.898;2023-02-16T14:16:31;101599.91;;;-4.48;63.80
70323;BME280;57735;56.264;43.898;2023-02-16T14:19:18;101593.84;;;-4.47;63.92
70323;BME280;57735;56.264;43.898;2023-02-16T14:21:51;101599.88;;;-4.45;63.51
70323;BME280;57735;56.264;43.898;2023-02-16T14:24:34;101606.78;;;-4.44;63.52
70323;BME280;57735;56.264;43.898;2023-02-16T14:27:46;101603.38;;;-4.48;64.01
70323;BME280;57735;56.264;43.898;2023-02-16T14:38:35;101595.38;;;-4.36;64.01
70323;BME280;57735;56.264;43.898;2023-02-16T14:50:36;101602.34;;;-4.38;65.06
70323;BME280;57735;56.264;43.898;2023-02-16T14:52:55;101598.97;;;-4.44;65.12
70323;BME280;57735;56.264;43.898;2023-02-16T15:01:12;101598.56;;;-4.22;64.39
70323;BME280;57735;56.264;43.898;2023-02-16T15:03:50;101602.06;;;-4.24;64.27
70323;BME280;57735;56.264;43.898;2023-02-16T15:06:31;101596.25;;;-4.37;65.19
70323;BME280;57735;56.264;43.898;2023-02-16T15:09:19;101595.38;;;-4.37;64.88
70323;BME280;57735;56.264;43.898;2023-02-16T15:12:09;101594.72;;;-4.48;65.00
70323;BME280;57735;56.264;43.898;2023-02-16T15:17:32;101594.63;;;-4.42;65.30
70323;BME280;57735;56.264;43.898;2023-02-16T15:20:15;101600.66;;;-4.40;65.08
70323;BME280;57735;56.264;43.898;2023-02-16T15:22:55;101598.78;;;-4.35;65.46
70323;BME280;57735;56.264;43.898;2023-02-16T15:28:20;101595.19;;;-4.28;65.79
70323;BME280;57735;56.264;43.898;2023-02-16T15:30:57;101598.59;;;-4.25;65.37
70323;BME280;57735;56.264;43.898;2023-02-16T15:36:12;101601.22;;;-4.26;64.93
70323;BME280;57735;56.264;43.898;2023-02-16T15:38:57;101591.69;;;-4.26;65.29
70323;BME280;57735;56.264;43.898;2023-02-16T15:41:37;101593.50;;;-4.31;65.47
70323;BME280;57735;56.264;43.898;2023-02-16T15:44:28;101597.84;;;-4.31;65.62
70323;BME280;57735;56.264;43.898;2023-02-16T15:49:41;101600.44;;;-4.30;65.41
70323;BME280;57735;56.264;43.898;2023-02-16T15:52:16;101590.88;;;-4.29;65.94
70323;BME280;57735;56.264;43.898;2023-02-16T15:54:48;101597.75;;;-4.25;65.90
70323;BME280;57735;56.264;43.898;2023-02-16T15:59:57;101603.81;;;-4.25;66.28
70323;BME280;57735;56.264;43.898;2023-02-16T16:02:41;101607.25;;;-4.23;66.36
70323;BME280;57735;56.264;43.898;2023-02-16T16:05:33;101598.53;;;-4.20;66.27
70323;BME280;57735;56.264;43.898;2023-02-16T16:08:07;101602.84;;;-4.19;66.07
70323;BME280;57735;56.264;43.898;2023-02-16T16:10:42;101608.00;;;-4.17;65.95
70323;BME280;57735;56.264;43.898;2023-02-16T16:13:34;101622.66;;;-4.13;66.28
70323;BME280;57735;56.264;43.898;2023-02-16T16:16:05;101616.53;;;-4.09;66.15
70323;BME280;57735;56.264;43.898;2023-02-16T16:18:47;101617.34;;;-4.07;66.14
70323;BME280;57735;56.264;43.898;2023-02-16T16:21:28;101621.50;;;-3.99;65.89